AZA125 LIEO-LIMC
Flight info
| Callsign | AZA125 |
|---|---|
| Flight time | N/A |
| Altitude | 30000 |
| Route | OKIVA P980 DIKEL DCT RATAP DCT MEGER DCT ANAKI P860 DEVOX |
| Aircraft | A20N/M-SDE2E3FGHIRWXY/LB1 |
Departure
| Time | 2026-05-05 18:32 |
|---|---|
| Airport | Olbia Costa Smeralda Airport (LIEO) |
Arrival
| Time | N/A |
|---|---|
| Airport | Milan Malpensa International Airport (LIMC) |
| Time | Latitude | Longitude | Altitude | Speed | Heading |
|---|---|---|---|---|---|
| 2026-05-05 18:21 | 40.90138 | 9.51459 | 49 ft | 0 kts | 325° |
| 2026-05-05 18:24 | 40.90136 | 9.51460 | 49 ft | 2 kts | 326° |
| 2026-05-05 18:24 | 40.90124 | 9.51471 | 49 ft | 2 kts | 325° |
| 2026-05-05 18:25 | 40.90116 | 9.51478 | 49 ft | 2 kts | 324° |
| 2026-05-05 18:25 | 40.90109 | 9.51488 | 49 ft | 2 kts | 299° |
| 2026-05-05 18:25 | 40.90103 | 9.51514 | 49 ft | 2 kts | 267° |
| 2026-05-05 18:25 | 40.90107 | 9.51533 | 49 ft | 1 kts | 243° |
| 2026-05-05 18:26 | 40.90110 | 9.51540 | 49 ft | 1 kts | 233° |
| 2026-05-05 18:26 | 40.90112 | 9.51543 | 49 ft | 0 kts | 236° |
| 2026-05-05 18:27 | 40.90104 | 9.51528 | 49 ft | 5 kts | 235° |
| 2026-05-05 18:28 | 40.89976 | 9.51515 | 49 ft | 13 kts | 190° |
| 2026-05-05 18:28 | 40.89904 | 9.51450 | 49 ft | 9 kts | 234° |
| 2026-05-05 18:28 | 40.89865 | 9.51368 | 49 ft | 11 kts | 237° |
| 2026-05-05 18:29 | 40.89810 | 9.51261 | 49 ft | 16 kts | 235° |
| 2026-05-05 18:29 | 40.89741 | 9.51131 | 49 ft | 17 kts | 234° |
| 2026-05-05 18:29 | 40.89672 | 9.50996 | 49 ft | 18 kts | 237° |
| 2026-05-05 18:29 | 40.89601 | 9.50858 | 49 ft | 18 kts | 235° |
| 2026-05-05 18:30 | 40.89526 | 9.50719 | 49 ft | 18 kts | 234° |
| 2026-05-05 18:30 | 40.89449 | 9.50579 | 49 ft | 18 kts | 236° |
| 2026-05-05 18:30 | 40.89371 | 9.50448 | 49 ft | 17 kts | 210° |
| 2026-05-05 18:30 | 40.89277 | 9.50520 | 49 ft | 19 kts | 104° |
| 2026-05-05 18:31 | 40.89318 | 9.50708 | 49 ft | 31 kts | 60° |
| 2026-05-05 18:31 | 40.89565 | 9.51193 | 49 ft | 97 kts | 54° |
| 2026-05-05 18:31 | 40.90079 | 9.52172 | 60 ft | 156 kts | 61° |
| 2026-05-05 18:31 | 40.90691 | 9.53411 | 503 ft | 169 kts | 62° |
| 2026-05-05 18:32 | 40.91337 | 9.54761 | 1191 ft | 175 kts | 57° |
| 2026-05-05 18:32 | 40.92083 | 9.55988 | 1912 ft | 177 kts | 51° |
| 2026-05-05 18:32 | 40.92870 | 9.57285 | 2479 ft | 189 kts | 54° |
| 2026-05-05 18:32 | 40.93660 | 9.58755 | 3006 ft | 204 kts | 58° |
| 2026-05-05 18:33 | 40.94436 | 9.60365 | 3568 ft | 219 kts | 59° |
| 2026-05-05 18:33 | 40.95316 | 9.62113 | 4101 ft | 238 kts | 56° |
| 2026-05-05 18:33 | 40.96302 | 9.63968 | 4676 ft | 256 kts | 55° |
| 2026-05-05 18:33 | 40.97526 | 9.65723 | 5356 ft | 264 kts | 31° |
| 2026-05-05 18:34 | 40.99246 | 9.66477 | 6104 ft | 265 kts | 359° |
| 2026-05-05 18:34 | 41.01049 | 9.66016 | 6781 ft | 270 kts | 329° |
| 2026-05-05 18:34 | 41.02626 | 9.64626 | 7454 ft | 278 kts | 320° |
| 2026-05-05 18:34 | 41.04189 | 9.63125 | 8296 ft | 282 kts | 321° |
| 2026-05-05 18:35 | 41.05794 | 9.61626 | 9155 ft | 285 kts | 321° |
| 2026-05-05 18:35 | 41.07383 | 9.60060 | 9978 ft | 286 kts | 315° |
| 2026-05-05 18:35 | 41.08780 | 9.58212 | 10699 ft | 292 kts | 307° |
| 2026-05-05 18:35 | 41.10052 | 9.56014 | 11143 ft | 308 kts | 303° |
| 2026-05-05 18:36 | 41.11332 | 9.53650 | 11516 ft | 325 kts | 302° |
| 2026-05-05 18:36 | 41.12664 | 9.51175 | 12115 ft | 333 kts | 302° |
| 2026-05-05 18:36 | 41.14017 | 9.48674 | 12865 ft | 337 kts | 302° |
| 2026-05-05 18:36 | 41.15379 | 9.46168 | 13566 ft | 341 kts | 302° |
| 2026-05-05 18:37 | 41.16776 | 9.43598 | 14236 ft | 345 kts | 302° |
| 2026-05-05 18:37 | 41.18168 | 9.41038 | 14901 ft | 348 kts | 302° |
| 2026-05-05 18:37 | 41.19589 | 9.38425 | 15552 ft | 351 kts | 302° |
| 2026-05-05 18:37 | 41.21019 | 9.35794 | 16179 ft | 355 kts | 302° |
| 2026-05-05 18:38 | 41.22456 | 9.33113 | 16792 ft | 358 kts | 300° |
| 2026-05-05 18:38 | 41.23830 | 9.30333 | 17401 ft | 360 kts | 298° |
| 2026-05-05 18:38 | 41.25174 | 9.27558 | 18002 ft | 363 kts | 298° |
| 2026-05-05 18:38 | 41.26532 | 9.24738 | 18563 ft | 366 kts | 298° |
| 2026-05-05 18:39 | 41.27907 | 9.21886 | 19127 ft | 369 kts | 298° |
| 2026-05-05 18:39 | 41.29301 | 9.18994 | 19706 ft | 371 kts | 298° |
| 2026-05-05 18:39 | 41.30680 | 9.16132 | 20243 ft | 373 kts | 298° |
| 2026-05-05 18:39 | 41.32305 | 9.13371 | 20735 ft | 384 kts | 313° |
| 2026-05-05 18:40 | 41.34587 | 9.11446 | 21244 ft | 398 kts | 333° |
| 2026-05-05 18:40 | 41.37325 | 9.10647 | 21755 ft | 410 kts | 353° |
| 2026-05-05 18:40 | 41.40157 | 9.10708 | 22257 ft | 415 kts | 358° |
| 2026-05-05 18:40 | 41.43063 | 9.10868 | 22696 ft | 419 kts | 358° |
| 2026-05-05 18:41 | 41.45995 | 9.11022 | 23186 ft | 422 kts | 358° |
| 2026-05-05 18:41 | 41.48905 | 9.11150 | 23687 ft | 423 kts | 357° |
| 2026-05-05 18:41 | 41.51853 | 9.11261 | 24154 ft | 425 kts | 357° |
| 2026-05-05 18:41 | 41.54843 | 9.11363 | 24597 ft | 428 kts | 356° |
| 2026-05-05 18:42 | 41.57809 | 9.11388 | 25001 ft | 430 kts | 354° |
| 2026-05-05 18:42 | 41.60798 | 9.11356 | 25400 ft | 433 kts | 354° |
| 2026-05-05 18:42 | 41.63834 | 9.11314 | 25792 ft | 436 kts | 354° |